sensor_id;sensor_type;location;lat;lon;timestamp;P1;durP1;ratioP1;P2;durP2;ratioP2
19255;SDS011;9762;52.490;13.410;2023-06-26T00:00:26;11.53;;;10.33;;
19255;SDS011;9762;52.490;13.410;2023-06-26T00:02:51;11.50;;;10.50;;
19255;SDS011;9762;52.490;13.410;2023-06-26T00:05:17;10.83;;;9.87;;
19255;SDS011;9762;52.490;13.410;2023-06-26T00:07:43;11.30;;;10.20;;
19255;SDS011;9762;52.490;13.410;2023-06-26T00:10:08;10.80;;;9.80;;
19255;SDS011;9762;52.490;13.410;2023-06-26T00:12:34;12.03;;;10.33;;
19255;SDS011;9762;52.490;13.410;2023-06-26T00:15:00;11.93;;;10.50;;
19255;SDS011;9762;52.490;13.410;2023-06-26T00:17:26;11.13;;;10.27;;
19255;SDS011;9762;52.490;13.410;2023-06-26T00:19:51;11.13;;;10.03;;
19255;SDS011;9762;52.490;13.410;2023-06-26T00:22:17;11.20;;;10.10;;
19255;SDS011;9762;52.490;13.410;2023-06-26T00:24:43;11.53;;;10.43;;
19255;SDS011;9762;52.490;13.410;2023-06-26T00:27:12;10.97;;;10.10;;
19255;SDS011;9762;52.490;13.410;2023-06-26T00:29:37;11.40;;;10.27;;
19255;SDS011;9762;52.490;13.410;2023-06-26T00:32:03;11.43;;;10.23;;
19255;SDS011;9762;52.490;13.410;2023-06-26T00:34:29;11.30;;;10.20;;
19255;SDS011;9762;52.490;13.410;2023-06-26T00:36:55;11.70;;;10.30;;
19255;SDS011;9762;52.490;13.410;2023-06-26T00:39:21;10.63;;;9.77;;
19255;SDS011;9762;52.490;13.410;2023-06-26T00:41:46;12.57;;;10.53;;
19255;SDS011;9762;52.490;13.410;2023-06-26T00:44:12;11.63;;;10.73;;
19255;SDS011;9762;52.490;13.410;2023-06-26T00:46:38;11.47;;;10.23;;
19255;SDS011;9762;52.490;13.410;2023-06-26T00:49:04;11.70;;;10.70;;
19255;SDS011;9762;52.490;13.410;2023-06-26T00:51:30;12.03;;;10.83;;
19255;SDS011;9762;52.490;13.410;2023-06-26T00:53:56;11.50;;;10.50;;
19255;SDS011;9762;52.490;13.410;2023-06-26T00:56:22;11.53;;;10.20;;
19255;SDS011;9762;52.490;13.410;2023-06-26T00:58:49;11.57;;;10.67;;
19255;SDS011;9762;52.490;13.410;2023-06-26T01:01:14;11.87;;;10.83;;
19255;SDS011;9762;52.490;13.410;2023-06-26T01:03:45;11.60;;;10.57;;
19255;SDS011;9762;52.490;13.410;2023-06-26T01:06:16;11.50;;;10.17;;
19255;SDS011;9762;52.490;13.410;2023-06-26T01:08:43;11.70;;;10.63;;
19255;SDS011;9762;52.490;13.410;2023-06-26T01:11:10;11.77;;;10.83;;
19255;SDS011;9762;52.490;13.410;2023-06-26T01:13:36;13.53;;;10.17;;
19255;SDS011;9762;52.490;13.410;2023-06-26T01:16:02;11.60;;;10.53;;
19255;SDS011;9762;52.490;13.410;2023-06-26T01:18:28;11.97;;;10.70;;
19255;SDS011;9762;52.490;13.410;2023-06-26T01:20:55;10.80;;;10.00;;
19255;SDS011;9762;52.490;13.410;2023-06-26T01:23:35;10.93;;;10.07;;
19255;SDS011;9762;52.490;13.410;2023-06-26T01:26:21;11.30;;;10.13;;
19255;SDS011;9762;52.490;13.410;2023-06-26T01:28:49;12.10;;;11.10;;
19255;SDS011;9762;52.490;13.410;2023-06-26T01:31:16;10.80;;;10.00;;
19255;SDS011;9762;52.490;13.410;2023-06-26T01:33:42;11.03;;;9.90;;
19255;SDS011;9762;52.490;13.410;2023-06-26T01:36:09;10.67;;;9.77;;
19255;SDS011;9762;52.490;13.410;2023-06-26T01:38:35;11.47;;;10.57;;
19255;SDS011;9762;52.490;13.410;2023-06-26T01:41:01;12.03;;;10.93;;
19255;SDS011;9762;52.490;13.410;2023-06-26T01:46:21;11.50;;;10.47;;
19255;SDS011;9762;52.490;13.410;2023-06-26T01:49:07;11.40;;;10.47;;
19255;SDS011;9762;52.490;13.410;2023-06-26T01:51:46;10.97;;;10.07;;
19255;SDS011;9762;52.490;13.410;2023-06-26T01:54:17;11.17;;;10.17;;
19255;SDS011;9762;52.490;13.410;2023-06-26T01:56:48;11.80;;;10.80;;
19255;SDS011;9762;52.490;13.410;2023-06-26T01:59:15;11.93;;;10.83;;
19255;SDS011;9762;52.490;13.410;2023-06-26T02:01:42;10.83;;;9.93;;
19255;SDS011;9762;52.490;13.410;2023-06-26T02:04:08;11.73;;;10.73;;
19255;SDS011;9762;52.490;13.410;2023-06-26T02:06:34;11.60;;;10.67;;
19255;SDS011;9762;52.490;13.410;2023-06-26T02:08:59;10.87;;;9.97;;
19255;SDS011;9762;52.490;13.410;2023-06-26T02:11:25;11.10;;;10.20;;
19255;SDS011;9762;52.490;13.410;2023-06-26T02:13:51;12.13;;;10.27;;
19255;SDS011;9762;52.490;13.410;2023-06-26T02:16:16;11.00;;;10.00;;
19255;SDS011;9762;52.490;13.410;2023-06-26T02:18:42;12.10;;;11.00;;
19255;SDS011;9762;52.490;13.410;2023-06-26T02:21:09;13.83;;;11.00;;
19255;SDS011;9762;52.490;13.410;2023-06-26T02:23:35;11.40;;;10.43;;
19255;SDS011;9762;52.490;13.410;2023-06-26T02:26:02;11.30;;;10.20;;
19255;SDS011;9762;52.490;13.410;2023-06-26T02:28:27;11.57;;;10.47;;
19255;SDS011;9762;52.490;13.410;2023-06-26T02:30:53;11.57;;;10.47;;
19255;SDS011;9762;52.490;13.410;2023-06-26T02:33:18;11.83;;;10.67;;
19255;SDS011;9762;52.490;13.410;2023-06-26T02:35:44;10.03;;;9.13;;
19255;SDS011;9762;52.490;13.410;2023-06-26T02:38:10;13.57;;;10.93;;
19255;SDS011;9762;52.490;13.410;2023-06-26T02:40:37;11.07;;;10.17;;
19255;SDS011;9762;52.490;13.410;2023-06-26T02:43:02;12.50;;;11.33;;
19255;SDS011;9762;52.490;13.410;2023-06-26T02:45:28;11.33;;;10.37;;
19255;SDS011;9762;52.490;13.410;2023-06-26T02:47:53;11.77;;;10.67;;
19255;SDS011;9762;52.490;13.410;2023-06-26T02:50:19;12.20;;;11.00;;
19255;SDS011;9762;52.490;13.410;2023-06-26T02:52:45;12.40;;;11.27;;
19255;SDS011;9762;52.490;13.410;2023-06-26T02:55:13;12.73;;;11.50;;
19255;SDS011;9762;52.490;13.410;2023-06-26T02:57:38;14.93;;;11.23;;
19255;SDS011;9762;52.490;13.410;2023-06-26T03:00:04;14.97;;;10.47;;
19255;SDS011;9762;52.490;13.410;2023-06-26T03:02:33;12.40;;;11.40;;
19255;SDS011;9762;52.490;13.410;2023-06-26T03:04:58;11.90;;;10.80;;
19255;SDS011;9762;52.490;13.410;2023-06-26T03:07:24;12.47;;;11.47;;
19255;SDS011;9762;52.490;13.410;2023-06-26T03:09:49;10.93;;;10.07;;
19255;SDS011;9762;52.490;13.410;2023-06-26T03:12:15;11.60;;;10.67;;
19255;SDS011;9762;52.490;13.410;2023-06-26T03:14:41;12.77;;;11.57;;
19255;SDS011;9762;52.490;13.410;2023-06-26T03:17:06;12.07;;;11.20;;
19255;SDS011;9762;52.490;13.410;2023-06-26T03:19:32;13.23;;;12.23;;
19255;SDS011;9762;52.490;13.410;2023-06-26T03:21:58;12.77;;;11.33;;
19255;SDS011;9762;52.490;13.410;2023-06-26T03:24:23;13.73;;;12.43;;
19255;SDS011;9762;52.490;13.410;2023-06-26T03:26:49;12.60;;;11.60;;
19255;SDS011;9762;52.490;13.410;2023-06-26T03:29:14;14.40;;;12.90;;
19255;SDS011;9762;52.490;13.410;2023-06-26T03:31:40;12.77;;;11.57;;
19255;SDS011;9762;52.490;13.410;2023-06-26T03:34:06;13.13;;;11.73;;
19255;SDS011;9762;52.490;13.410;2023-06-26T03:36:31;15.07;;;12.47;;
19255;SDS011;9762;52.490;13.410;2023-06-26T03:38:57;12.27;;;11.27;;
19255;SDS011;9762;52.490;13.410;2023-06-26T03:41:23;13.80;;;11.80;;
19255;SDS011;9762;52.490;13.410;2023-06-26T03:43:49;13.60;;;12.40;;
19255;SDS011;9762;52.490;13.410;2023-06-26T03:46:14;13.43;;;12.13;;
19255;SDS011;9762;52.490;13.410;2023-06-26T03:48:40;13.57;;;12.27;;
19255;SDS011;9762;52.490;13.410;2023-06-26T03:51:06;12.53;;;11.40;;
19255;SDS011;9762;52.490;13.410;2023-06-26T03:53:32;13.73;;;12.40;;
19255;SDS011;9762;52.490;13.410;2023-06-26T03:55:58;14.13;;;13.03;;
19255;SDS011;9762;52.490;13.410;2023-06-26T03:58:24;13.73;;;12.53;;
19255;SDS011;9762;52.490;13.410;2023-06-26T04:00:50;13.40;;;12.03;;
19255;SDS011;9762;52.490;13.410;2023-06-26T04:03:16;14.43;;;13.20;;
19255;SDS011;9762;52.490;13.410;2023-06-26T04:05:41;14.13;;;12.90;;
19255;SDS011;9762;52.490;13.410;2023-06-26T04:08:07;13.83;;;12.60;;
19255;SDS011;9762;52.490;13.410;2023-06-26T04:10:33;15.40;;;13.87;;
19255;SDS011;9762;52.490;13.410;2023-06-26T04:12:59;16.00;;;14.43;;
19255;SDS011;9762;52.490;13.410;2023-06-26T04:15:24;14.27;;;12.97;;
19255;SDS011;9762;52.490;13.410;2023-06-26T04:17:50;16.17;;;13.60;;
19255;SDS011;9762;52.490;13.410;2023-06-26T04:20:15;13.97;;;12.77;;
19255;SDS011;9762;52.490;13.410;2023-06-26T04:22:41;14.77;;;13.47;;
19255;SDS011;9762;52.490;13.410;2023-06-26T04:25:07;13.67;;;12.53;;
19255;SDS011;9762;52.490;13.410;2023-06-26T04:27:33;15.20;;;13.90;;
19255;SDS011;9762;52.490;13.410;2023-06-26T04:29:59;14.00;;;12.70;;
19255;SDS011;9762;52.490;13.410;2023-06-26T04:32:25;14.17;;;12.50;;
19255;SDS011;9762;52.490;13.410;2023-06-26T04:34:51;13.17;;;11.87;;
19255;SDS011;9762;52.490;13.410;2023-06-26T04:37:17;13.53;;;12.27;;
19255;SDS011;9762;52.490;13.410;2023-06-26T04:39:43;12.67;;;11.57;;
19255;SDS011;9762;52.490;13.410;2023-06-26T04:42:09;13.23;;;12.13;;
19255;SDS011;9762;52.490;13.410;2023-06-26T04:44:37;13.30;;;11.97;;
19255;SDS011;9762;52.490;13.410;2023-06-26T04:47:03;13.57;;;12.43;;
19255;SDS011;9762;52.490;13.410;2023-06-26T04:49:29;13.13;;;11.00;;
19255;SDS011;9762;52.490;13.410;2023-06-26T04:51:55;12.43;;;11.40;;
19255;SDS011;9762;52.490;13.410;2023-06-26T04:54:25;13.63;;;12.40;;
19255;SDS011;9762;52.490;13.410;2023-06-26T04:56:51;12.87;;;11.67;;
19255;SDS011;9762;52.490;13.410;2023-06-26T04:59:17;12.83;;;11.73;;
19255;SDS011;9762;52.490;13.410;2023-06-26T05:01:43;12.70;;;11.57;;
19255;SDS011;9762;52.490;13.410;2023-06-26T05:04:13;12.60;;;11.40;;
19255;SDS011;9762;52.490;13.410;2023-06-26T05:06:40;13.10;;;11.97;;
19255;SDS011;9762;52.490;13.410;2023-06-26T05:09:06;12.90;;;11.70;;
19255;SDS011;9762;52.490;13.410;2023-06-26T05:11:32;11.63;;;10.73;;
19255;SDS011;9762;52.490;13.410;2023-06-26T05:13:58;12.33;;;11.37;;
19255;SDS011;9762;52.490;13.410;2023-06-26T05:16:24;12.90;;;11.77;;
19255;SDS011;9762;52.490;13.410;2023-06-26T05:18:50;12.73;;;11.63;;
19255;SDS011;9762;52.490;13.410;2023-06-26T05:21:16;12.60;;;11.50;;
19255;SDS011;9762;52.490;13.410;2023-06-26T05:23:42;12.13;;;11.07;;
19255;SDS011;9762;52.490;13.410;2023-06-26T05:26:11;12.60;;;11.50;;
19255;SDS011;9762;52.490;13.410;2023-06-26T05:28:38;13.53;;;11.97;;
19255;SDS011;9762;52.490;13.410;2023-06-26T05:31:04;12.37;;;11.13;;
19255;SDS011;9762;52.490;13.410;2023-06-26T05:33:30;12.57;;;11.00;;
19255;SDS011;9762;52.490;13.410;2023-06-26T05:35:57;12.77;;;11.40;;
19255;SDS011;9762;52.490;13.410;2023-06-26T05:38:24;13.33;;;11.23;;
19255;SDS011;9762;52.490;13.410;2023-06-26T05:40:50;11.40;;;10.50;;
19255;SDS011;9762;52.490;13.410;2023-06-26T05:43:16;11.50;;;10.03;;
19255;SDS011;9762;52.490;13.410;2023-06-26T05:45:46;11.77;;;10.57;;
19255;SDS011;9762;52.490;13.410;2023-06-26T05:48:12;11.77;;;10.50;;
19255;SDS011;9762;52.490;13.410;2023-06-26T05:50:38;11.00;;;10.10;;
19255;SDS011;9762;52.490;13.410;2023-06-26T05:53:06;11.73;;;10.57;;
19255;SDS011;9762;52.490;13.410;2023-06-26T05:55:33;10.53;;;9.63;;
19255;SDS011;9762;52.490;13.410;2023-06-26T05:57:59;10.77;;;9.87;;
19255;SDS011;9762;52.490;13.410;2023-06-26T06:00:26;10.63;;;9.63;;
19255;SDS011;9762;52.490;13.410;2023-06-26T06:02:52;11.37;;;10.37;;
19255;SDS011;9762;52.490;13.410;2023-06-26T06:05:19;10.05;;;9.20;;
19255;SDS011;9762;52.490;13.410;2023-06-26T06:07:45;10.33;;;9.37;;
19255;SDS011;9762;52.490;13.410;2023-06-26T06:10:11;10.02;;;9.30;;
19255;SDS011;9762;52.490;13.410;2023-06-26T06:12:37;9.57;;;8.63;;
19255;SDS011;9762;52.490;13.410;2023-06-26T06:15:02;10.33;;;9.43;;
19255;SDS011;9762;52.490;13.410;2023-06-26T06:17:28;8.93;;;8.17;;
19255;SDS011;9762;52.490;13.410;2023-06-26T06:19:54;9.73;;;8.77;;
19255;SDS011;9762;52.490;13.410;2023-06-26T06:22:19;9.63;;;8.73;;
19255;SDS011;9762;52.490;13.410;2023-06-26T06:24:48;14.68;;;8.70;;
19255;SDS011;9762;52.490;13.410;2023-06-26T06:27:14;9.73;;;8.80;;
19255;SDS011;9762;52.490;13.410;2023-06-26T06:29:40;8.80;;;8.00;;
19255;SDS011;9762;52.490;13.410;2023-06-26T06:32:06;9.70;;;8.18;;
19255;SDS011;9762;52.490;13.410;2023-06-26T06:34:32;10.98;;;7.95;;
19255;SDS011;9762;52.490;13.410;2023-06-26T06:36:58;8.73;;;7.95;;
19255;SDS011;9762;52.490;13.410;2023-06-26T06:39:24;8.00;;;7.30;;
19255;SDS011;9762;52.490;13.410;2023-06-26T06:41:50;8.82;;;8.13;;
19255;SDS011;9762;52.490;13.410;2023-06-26T06:44:16;10.52;;;8.50;;
19255;SDS011;9762;52.490;13.410;2023-06-26T06:46:42;7.95;;;7.35;;
19255;SDS011;9762;52.490;13.410;2023-06-26T06:49:08;7.85;;;7.25;;
19255;SDS011;9762;52.490;13.410;2023-06-26T06:51:34;8.50;;;7.70;;
19255;SDS011;9762;52.490;13.410;2023-06-26T06:54:01;10.90;;;7.43;;
19255;SDS011;9762;52.490;13.410;2023-06-26T06:56:27;10.02;;;7.53;;
19255;SDS011;9762;52.490;13.410;2023-06-26T06:58:53;7.93;;;7.28;;
19255;SDS011;9762;52.490;13.410;2023-06-26T07:01:19;8.93;;;7.60;;
19255;SDS011;9762;52.490;13.410;2023-06-26T07:03:45;7.28;;;6.78;;
19255;SDS011;9762;52.490;13.410;2023-06-26T07:06:11;7.90;;;7.18;;
19255;SDS011;9762;52.490;13.410;2023-06-26T07:08:37;8.32;;;7.00;;
19255;SDS011;9762;52.490;13.410;2023-06-26T07:11:03;8.23;;;7.10;;
19255;SDS011;9762;52.490;13.410;2023-06-26T07:13:29;7.57;;;6.78;;
19255;SDS011;9762;52.490;13.410;2023-06-26T07:15:54;6.90;;;6.32;;
19255;SDS011;9762;52.490;13.410;2023-06-26T07:18:20;7.22;;;6.53;;
19255;SDS011;9762;52.490;13.410;2023-06-26T07:20:45;8.55;;;6.85;;
19255;SDS011;9762;52.490;13.410;2023-06-26T07:23:11;9.90;;;6.75;;
19255;SDS011;9762;52.490;13.410;2023-06-26T07:25:36;8.27;;;7.13;;
19255;SDS011;9762;52.490;13.410;2023-06-26T07:28:02;7.53;;;6.80;;
19255;SDS011;9762;52.490;13.410;2023-06-26T07:30:28;7.85;;;7.13;;
19255;SDS011;9762;52.490;13.410;2023-06-26T07:32:53;7.53;;;6.70;;
19255;SDS011;9762;52.490;13.410;2023-06-26T07:35:19;7.57;;;6.90;;
19255;SDS011;9762;52.490;13.410;2023-06-26T07:37:45;6.78;;;6.35;;
19255;SDS011;9762;52.490;13.410;2023-06-26T07:40:11;7.15;;;6.55;;
19255;SDS011;9762;52.490;13.410;2023-06-26T07:42:36;6.85;;;6.35;;
19255;SDS011;9762;52.490;13.410;2023-06-26T07:45:02;7.00;;;6.50;;
19255;SDS011;9762;52.490;13.410;2023-06-26T07:47:34;6.88;;;5.97;;
19255;SDS011;9762;52.490;13.410;2023-06-26T07:50:01;6.30;;;5.90;;
19255;SDS011;9762;52.490;13.410;2023-06-26T07:52:27;7.30;;;6.53;;
19255;SDS011;9762;52.490;13.410;2023-06-26T07:54:52;6.70;;;6.18;;
19255;SDS011;9762;52.490;13.410;2023-06-26T07:57:18;7.22;;;5.38;;
19255;SDS011;9762;52.490;13.410;2023-06-26T07:59:44;6.68;;;6.18;;
19255;SDS011;9762;52.490;13.410;2023-06-26T08:02:09;6.25;;;5.50;;
19255;SDS011;9762;52.490;13.410;2023-06-26T08:04:35;6.07;;;5.70;;
19255;SDS011;9762;52.490;13.410;2023-06-26T08:07:01;6.15;;;5.72;;
19255;SDS011;9762;52.490;13.410;2023-06-26T08:09:27;5.63;;;4.88;;
19255;SDS011;9762;52.490;13.410;2023-06-26T08:11:54;10.48;;;5.32;;
19255;SDS011;9762;52.490;13.410;2023-06-26T08:14:20;5.40;;;5.13;;
19255;SDS011;9762;52.490;13.410;2023-06-26T08:16:46;5.25;;;4.85;;
19255;SDS011;9762;52.490;13.410;2023-06-26T08:19:12;5.60;;;5.10;;
19255;SDS011;9762;52.490;13.410;2023-06-26T08:21:40;4.95;;;4.70;;
19255;SDS011;9762;52.490;13.410;2023-06-26T08:24:06;5.97;;;4.55;;
19255;SDS011;9762;52.490;13.410;2023-06-26T08:26:32;5.32;;;4.82;;
19255;SDS011;9762;52.490;13.410;2023-06-26T08:28:57;6.18;;;4.63;;
19255;SDS011;9762;52.490;13.410;2023-06-26T08:31:23;4.68;;;4.43;;
19255;SDS011;9762;52.490;13.410;2023-06-26T08:33:48;4.78;;;4.43;;
19255;SDS011;9762;52.490;13.410;2023-06-26T08:36:14;4.90;;;4.60;;
19255;SDS011;9762;52.490;13.410;2023-06-26T08:38:40;4.70;;;4.50;;
19255;SDS011;9762;52.490;13.410;2023-06-26T08:41:06;4.63;;;4.40;;
19255;SDS011;9762;52.490;13.410;2023-06-26T08:43:32;4.95;;;4.18;;
19255;SDS011;9762;52.490;13.410;2023-06-26T08:45:58;4.25;;;3.85;;
19255;SDS011;9762;52.490;13.410;2023-06-26T08:48:24;5.13;;;4.72;;
19255;SDS011;9762;52.490;13.410;2023-06-26T08:50:52;8.85;;;4.47;;
19255;SDS011;9762;52.490;13.410;2023-06-26T08:56:06;4.47;;;4.28;;
19255;SDS011;9762;52.490;13.410;2023-06-26T08:58:33;4.30;;;4.10;;
19255;SDS011;9762;52.490;13.410;2023-06-26T09:01:01;4.38;;;4.07;;
19255;SDS011;9762;52.490;13.410;2023-06-26T09:03:29;4.53;;;4.32;;
19255;SDS011;9762;52.490;13.410;2023-06-26T09:05:55;4.43;;;4.22;;
19255;SDS011;9762;52.490;13.410;2023-06-26T09:08:21;3.97;;;3.83;;
19255;SDS011;9762;52.490;13.410;2023-06-26T09:10:46;5.00;;;4.47;;
19255;SDS011;9762;52.490;13.410;2023-06-26T09:13:12;4.25;;;4.05;;
19255;SDS011;9762;52.490;13.410;2023-06-26T09:15:38;10.02;;;4.00;;
19255;SDS011;9762;52.490;13.410;2023-06-26T09:18:07;4.72;;;4.53;;
19255;SDS011;9762;52.490;13.410;2023-06-26T09:20:33;5.00;;;4.70;;
19255;SDS011;9762;52.490;13.410;2023-06-26T09:22:59;6.68;;;4.85;;
19255;SDS011;9762;52.490;13.410;2023-06-26T09:25:25;4.72;;;4.50;;
19255;SDS011;9762;52.490;13.410;2023-06-26T09:27:51;4.50;;;4.20;;
19255;SDS011;9762;52.490;13.410;2023-06-26T09:30:18;4.88;;;4.57;;
19255;SDS011;9762;52.490;13.410;2023-06-26T09:32:44;4.43;;;4.22;;
19255;SDS011;9762;52.490;13.410;2023-06-26T09:35:10;4.35;;;4.15;;
19255;SDS011;9762;52.490;13.410;2023-06-26T09:37:36;4.22;;;4.00;;
19255;SDS011;9762;52.490;13.410;2023-06-26T09:40:02;4.60;;;4.30;;
19255;SDS011;9762;52.490;13.410;2023-06-26T09:42:29;4.68;;;4.38;;
19255;SDS011;9762;52.490;13.410;2023-06-26T09:44:55;4.70;;;4.40;;
19255;SDS011;9762;52.490;13.410;2023-06-26T09:47:21;5.15;;;4.80;;
19255;SDS011;9762;52.490;13.410;2023-06-26T09:49:47;5.65;;;4.18;;
19255;SDS011;9762;52.490;13.410;2023-06-26T09:52:16;4.60;;;4.20;;
19255;SDS011;9762;52.490;13.410;2023-06-26T09:54:43;4.50;;;4.30;;
19255;SDS011;9762;52.490;13.410;2023-06-26T09:57:13;4.70;;;4.40;;
19255;SDS011;9762;52.490;13.410;2023-06-26T09:59:41;4.90;;;4.50;;
19255;SDS011;9762;52.490;13.410;2023-06-26T10:02:09;4.82;;;4.63;;
19255;SDS011;9762;52.490;13.410;2023-06-26T10:04:36;4.80;;;4.13;;
19255;SDS011;9762;52.490;13.410;2023-06-26T10:07:04;4.18;;;3.88;;
19255;SDS011;9762;52.490;13.410;2023-06-26T10:09:31;9.13;;;4.45;;
19255;SDS011;9762;52.490;13.410;2023-06-26T10:14:30;4.95;;;4.55;;
19255;SDS011;9762;52.490;13.410;2023-06-26T10:17:07;4.65;;;4.40;;
19255;SDS011;9762;52.490;13.410;2023-06-26T10:19:39;10.77;;;3.80;;
19255;SDS011;9762;52.490;13.410;2023-06-26T10:22:08;3.72;;;3.53;;
19255;SDS011;9762;52.490;13.410;2023-06-26T10:24:37;3.92;;;3.67;;
19255;SDS011;9762;52.490;13.410;2023-06-26T10:27:15;4.00;;;3.80;;
19255;SDS011;9762;52.490;13.410;2023-06-26T10:29:43;4.78;;;3.97;;
19255;SDS011;9762;52.490;13.410;2023-06-26T10:32:12;4.03;;;3.90;;
19255;SDS011;9762;52.490;13.410;2023-06-26T10:34:39;3.58;;;3.47;;
19255;SDS011;9762;52.490;13.410;2023-06-26T10:37:05;3.90;;;3.63;;
19255;SDS011;9762;52.490;13.410;2023-06-26T10:39:45;3.80;;;3.50;;
19255;SDS011;9762;52.490;13.410;2023-06-26T10:42:15;3.60;;;3.50;;
19255;SDS011;9762;52.490;13.410;2023-06-26T10:44:45;3.63;;;3.42;;
19255;SDS011;9762;52.490;13.410;2023-06-26T10:47:33;4.65;;;4.43;;
19255;SDS011;9762;52.490;13.410;2023-06-26T10:55:33;4.30;;;4.00;;
19255;SDS011;9762;52.490;13.410;2023-06-26T10:57:59;4.10;;;3.85;;
19255;SDS011;9762;52.490;13.410;2023-06-26T11:00:26;4.03;;;3.83;;
19255;SDS011;9762;52.490;13.410;2023-06-26T11:02:52;3.90;;;3.70;;
19255;SDS011;9762;52.490;13.410;2023-06-26T11:05:27;5.32;;;4.20;;
19255;SDS011;9762;52.490;13.410;2023-06-26T11:08:10;4.97;;;3.95;;
19255;SDS011;9762;52.490;13.410;2023-06-26T11:10:53;4.07;;;3.97;;
19255;SDS011;9762;52.490;13.410;2023-06-26T11:13:20;4.13;;;3.80;;
19255;SDS011;9762;52.490;13.410;2023-06-26T11:15:46;4.00;;;3.67;;
19255;SDS011;9762;52.490;13.410;2023-06-26T11:18:13;4.32;;;4.07;;
19255;SDS011;9762;52.490;13.410;2023-06-26T11:20:39;4.28;;;3.95;;
19255;SDS011;9762;52.490;13.410;2023-06-26T11:23:05;4.20;;;4.00;;
19255;SDS011;9762;52.490;13.410;2023-06-26T11:25:36;4.13;;;3.90;;
19255;SDS011;9762;52.490;13.410;2023-06-26T11:28:03;4.25;;;4.05;;
19255;SDS011;9762;52.490;13.410;2023-06-26T11:30:30;4.43;;;4.22;;
19255;SDS011;9762;52.490;13.410;2023-06-26T11:33:06;4.50;;;4.20;;
19255;SDS011;9762;52.490;13.410;2023-06-26T11:35:32;4.50;;;4.15;;
19255;SDS011;9762;52.490;13.410;2023-06-26T11:37:59;5.40;;;4.25;;
19255;SDS011;9762;52.490;13.410;2023-06-26T11:40:29;4.40;;;4.10;;
19255;SDS011;9762;52.490;13.410;2023-06-26T11:42:58;4.30;;;4.10;;
19255;SDS011;9762;52.490;13.410;2023-06-26T11:45:25;4.90;;;4.60;;
19255;SDS011;9762;52.490;13.410;2023-06-26T11:47:55;4.72;;;4.43;;
19255;SDS011;9762;52.490;13.410;2023-06-26T11:50:22;5.65;;;3.95;;
19255;SDS011;9762;52.490;13.410;2023-06-26T11:52:53;5.82;;;4.70;;
19255;SDS011;9762;52.490;13.410;2023-06-26T11:55:20;4.60;;;4.32;;
19255;SDS011;9762;52.490;13.410;2023-06-26T11:57:52;4.50;;;4.30;;
19255;SDS011;9762;52.490;13.410;2023-06-26T12:00:19;4.38;;;4.18;;
19255;SDS011;9762;52.490;13.410;2023-06-26T12:02:45;4.20;;;3.90;;
19255;SDS011;9762;52.490;13.410;2023-06-26T12:05:12;4.45;;;4.05;;
19255;SDS011;9762;52.490;13.410;2023-06-26T12:07:39;4.75;;;4.22;;
19255;SDS011;9762;52.490;13.410;2023-06-26T12:10:07;4.30;;;4.07;;
19255;SDS011;9762;52.490;13.410;2023-06-26T12:12:34;4.25;;;4.05;;
19255;SDS011;9762;52.490;13.410;2023-06-26T12:15:00;4.40;;;4.20;;
19255;SDS011;9762;52.490;13.410;2023-06-26T12:17:26;4.47;;;4.07;;
19255;SDS011;9762;52.490;13.410;2023-06-26T12:19:51;4.68;;;4.47;;
19255;SDS011;9762;52.490;13.410;2023-06-26T12:22:17;4.68;;;4.38;;
19255;SDS011;9762;52.490;13.410;2023-06-26T12:24:44;4.40;;;4.20;;
19255;SDS011;9762;52.490;13.410;2023-06-26T12:27:11;4.50;;;4.05;;
19255;SDS011;9762;52.490;13.410;2023-06-26T12:29:38;7.88;;;4.65;;
19255;SDS011;9762;52.490;13.410;2023-06-26T12:32:09;4.78;;;4.45;;
19255;SDS011;9762;52.490;13.410;2023-06-26T12:34:36;4.82;;;4.57;;
19255;SDS011;9762;52.490;13.410;2023-06-26T12:37:03;4.70;;;4.40;;
19255;SDS011;9762;52.490;13.410;2023-06-26T12:39:44;4.93;;;4.63;;
19255;SDS011;9762;52.490;13.410;2023-06-26T12:42:21;4.43;;;4.22;;
19255;SDS011;9762;52.490;13.410;2023-06-26T12:44:49;4.95;;;4.63;;
19255;SDS011;9762;52.490;13.410;2023-06-26T12:47:15;4.85;;;4.65;;
19255;SDS011;9762;52.490;13.410;2023-06-26T12:49:43;5.15;;;4.78;;
19255;SDS011;9762;52.490;13.410;2023-06-26T12:52:10;5.28;;;4.90;;
19255;SDS011;9762;52.490;13.410;2023-06-26T12:54:38;5.07;;;4.78;;
19255;SDS011;9762;52.490;13.410;2023-06-26T12:57:06;5.47;;;5.03;;
19255;SDS011;9762;52.490;13.410;2023-06-26T12:59:32;5.10;;;4.80;;
19255;SDS011;9762;52.490;13.410;2023-06-26T13:01:59;8.15;;;5.70;;
19255;SDS011;9762;52.490;13.410;2023-06-26T13:04:25;5.05;;;4.75;;
19255;SDS011;9762;52.490;13.410;2023-06-26T13:06:52;5.10;;;4.70;;
19255;SDS011;9762;52.490;13.410;2023-06-26T13:09:20;5.60;;;5.22;;
19255;SDS011;9762;52.490;13.410;2023-06-26T13:11:46;5.82;;;5.40;;
19255;SDS011;9762;52.490;13.410;2023-06-26T13:14:12;5.68;;;5.18;;
19255;SDS011;9762;52.490;13.410;2023-06-26T13:16:37;5.18;;;4.93;;
19255;SDS011;9762;52.490;13.410;2023-06-26T13:19:03;4.95;;;4.75;;
19255;SDS011;9762;52.490;13.410;2023-06-26T13:21:29;5.65;;;5.25;;
19255;SDS011;9762;52.490;13.410;2023-06-26T13:23:55;5.57;;;5.15;;
19255;SDS011;9762;52.490;13.410;2023-06-26T13:26:21;5.95;;;5.45;;
19255;SDS011;9762;52.490;13.410;2023-06-26T13:28:48;6.35;;;5.68;;
19255;SDS011;9762;52.490;13.410;2023-06-26T13:31:14;5.70;;;5.35;;
19255;SDS011;9762;52.490;13.410;2023-06-26T13:33:40;5.88;;;5.38;;
19255;SDS011;9762;52.490;13.410;2023-06-26T13:36:06;6.55;;;5.50;;
19255;SDS011;9762;52.490;13.410;2023-06-26T13:38:34;5.82;;;5.53;;
19255;SDS011;9762;52.490;13.410;2023-06-26T13:41:00;6.60;;;5.47;;
19255;SDS011;9762;52.490;13.410;2023-06-26T13:43:26;5.75;;;5.45;;
19255;SDS011;9762;52.490;13.410;2023-06-26T13:45:53;5.57;;;5.22;;
19255;SDS011;9762;52.490;13.410;2023-06-26T13:48:20;5.35;;;5.07;;
19255;SDS011;9762;52.490;13.410;2023-06-26T13:50:46;5.63;;;5.05;;
19255;SDS011;9762;52.490;13.410;2023-06-26T13:53:12;8.50;;;5.38;;
19255;SDS011;9762;52.490;13.410;2023-06-26T13:55:38;5.53;;;5.22;;
19255;SDS011;9762;52.490;13.410;2023-06-26T13:58:05;6.72;;;6.22;;
19255;SDS011;9762;52.490;13.410;2023-06-26T14:00:31;9.80;;;6.90;;
19255;SDS011;9762;52.490;13.410;2023-06-26T14:02:58;6.03;;;5.72;;
19255;SDS011;9762;52.490;13.410;2023-06-26T14:05:25;7.03;;;6.45;;
19255;SDS011;9762;52.490;13.410;2023-06-26T14:07:50;6.07;;;5.78;;
19255;SDS011;9762;52.490;13.410;2023-06-26T14:10:16;6.38;;;5.95;;
19255;SDS011;9762;52.490;13.410;2023-06-26T14:12:41;6.82;;;5.40;;
19255;SDS011;9762;52.490;13.410;2023-06-26T14:15:07;7.10;;;6.20;;
19255;SDS011;9762;52.490;13.410;2023-06-26T14:17:33;6.30;;;5.80;;
19255;SDS011;9762;52.490;13.410;2023-06-26T14:19:59;5.70;;;5.40;;
19255;SDS011;9762;52.490;13.410;2023-06-26T14:22:24;12.05;;;5.47;;
19255;SDS011;9762;52.490;13.410;2023-06-26T14:24:50;31.60;;;5.00;;
19255;SDS011;9762;52.490;13.410;2023-06-26T14:27:16;12.32;;;4.38;;
19255;SDS011;9762;52.490;13.410;2023-06-26T14:29:41;17.75;;;6.50;;
19255;SDS011;9762;52.490;13.410;2023-06-26T14:32:07;16.88;;;6.68;;
19255;SDS011;9762;52.490;13.410;2023-06-26T14:34:33;11.68;;;5.85;;
19255;SDS011;9762;52.490;13.410;2023-06-26T14:36:59;6.20;;;4.85;;
19255;SDS011;9762;52.490;13.410;2023-06-26T14:39:24;17.85;;;5.88;;
19255;SDS011;9762;52.490;13.410;2023-06-26T14:41:50;7.07;;;6.35;;
19255;SDS011;9762;52.490;13.410;2023-06-26T14:44:16;9.30;;;5.95;;
19255;SDS011;9762;52.490;13.410;2023-06-26T14:46:42;9.20;;;5.22;;